Time;durP1;ratioP1;P1;durP2;ratioP2;P2;SDS_P1;SDS_P2;PMS_P1;PMS_P2;Temp;Humidity;BMP_temperature;BMP_pressure;BME280_temperature;BME280_humidity;BME280_pressure;Samples;Min_cycle;Max_cycle;Signal;HPM_P1;HPM_P2
2022/04/03 00:02:26;;;;;;;5.70;4.07;;;;;;;1.96;60.65;100826.84;5014901;28;20058;-48
2022/04/03 00:04:53;;;;;;;6.90;4.30;;;;;;;2.03;61.00;100822.00;5013013;28;20050;-47
2022/04/03 00:07:20;;;;;;;5.28;4.35;;;;;;;2.10;60.67;100832.84;4995739;28;20089;-47
2022/04/03 00:09:47;;;;;;;5.65;4.03;;;;;;;2.12;60.61;100825.19;5006940;28;20517;-48
2022/04/03 00:12:15;;;;;;;7.00;4.70;;;;;;;2.18;60.02;100823.34;5012387;28;20482;-46
2022/04/03 00:14:44;;;;;;;6.10;4.07;;;;;;;2.20;60.10;100838.50;5014749;28;20062;-47
2022/04/03 00:17:11;;;;;;;5.80;4.57;;;;;;;2.25;60.56;100829.53;5012663;28;20069;-47
2022/04/03 00:19:39;;;;;;;7.03;4.30;;;;;;;2.33;59.72;100831.00;5005204;28;20050;-47
2022/04/03 00:22:06;;;;;;;6.18;4.57;;;;;;;2.36;60.15;100830.53;5012790;28;20057;-47
2022/04/03 00:24:34;;;;;;;6.07;4.22;;;;;;;2.39;60.26;100839.09;5008284;28;20057;-47
2022/04/03 00:27:01;;;;;;;5.60;4.50;;;;;;;2.47;59.49;100828.75;5001549;28;20359;-47
2022/04/03 00:29:28;;;;;;;6.60;4.53;;;;;;;2.49;59.88;100829.34;5002215;28;20057;-49
2022/04/03 00:31:57;;;;;;;7.75;4.50;;;;;;;2.51;60.20;100832.66;4995232;28;20054;-48
2022/04/03 00:34:25;;;;;;;5.78;4.35;;;;;;;2.55;59.63;100837.41;5008634;28;20060;-46
2022/04/03 00:36:54;;;;;;;4.93;4.03;;;;;;;2.52;59.13;100826.06;5014504;28;20407;-50
2022/04/03 00:39:21;;;;;;;5.70;4.05;;;;;;;2.52;59.69;100832.41;5000082;28;20501;-47
2022/04/03 00:41:48;;;;;;;5.30;4.22;;;;;;;2.57;59.19;100826.16;5012376;28;20057;-47
2022/04/03 00:44:17;;;;;;;6.18;4.38;;;;;;;2.59;59.50;100829.50;5014387;28;20053;-47
2022/04/03 00:46:46;;;;;;;6.07;4.20;;;;;;;2.62;59.38;100832.59;5002361;28;20403;-46
2022/04/03 00:49:16;;;;;;;5.07;3.90;;;;;;;2.63;59.69;100836.97;4994344;28;20050;-47
2022/04/03 00:51:45;;;;;;;5.25;4.28;;;;;;;2.64;59.88;100835.88;4994906;28;20050;-51
2022/04/03 00:54:13;;;;;;;6.22;4.03;;;;;;;2.66;59.37;100838.38;5010081;28;20061;-47
2022/04/03 00:56:41;;;;;;;4.68;3.80;;;;;;;2.64;60.39;100837.81;5013380;28;20046;-46
2022/04/03 00:59:09;;;;;;;5.20;4.22;;;;;;;2.63;59.48;100834.22;5012886;28;20042;-46
2022/04/03 01:01:40;;;;;;;7.55;4.38;;;;;;;2.65;60.10;100844.97;5014320;28;20058;-48
2022/04/03 01:04:08;;;;;;;5.88;3.83;;;;;;;2.67;60.02;100837.31;4974206;28;20066;-48
2022/04/03 01:06:38;;;;;;;5.35;4.28;;;;;;;2.72;60.22;100836.56;4955586;28;20059;-47
2022/04/03 01:09:05;;;;;;;5.70;4.03;;;;;;;2.74;60.43;100837.94;4965927;28;20054;-47
2022/04/03 01:11:33;;;;;;;6.90;4.32;;;;;;;2.74;60.61;100837.13;4966603;28;20051;-48
2022/04/03 01:14:01;;;;;;;5.38;4.22;;;;;;;2.75;60.22;100838.78;4972472;28;20412;-46
2022/04/03 01:16:28;;;;;;;6.70;4.18;;;;;;;2.75;60.00;100839.63;4973612;28;20058;-50
2022/04/03 01:18:55;;;;;;;7.00;5.03;;;;;;;2.76;60.17;100837.72;4973654;28;20051;-48
2022/04/03 01:21:23;;;;;;;5.97;4.72;;;;;;;2.80;60.25;100836.94;4974078;28;20066;-48
2022/04/03 01:23:52;;;;;;;6.30;4.60;;;;;;;2.82;59.79;100834.78;4973540;28;20416;-49
2022/04/03 01:26:21;;;;;;;6.27;4.70;;;;;;;2.83;59.63;100825.44;4971109;28;20063;-48
2022/04/03 01:28:48;;;;;;;6.30;4.28;;;;;;;2.86;60.09;100829.59;4972615;28;20054;-48
2022/04/03 01:31:15;;;;;;;6.60;4.30;;;;;;;2.78;60.00;100830.88;4968739;28;20066;-47
2022/04/03 01:33:45;;;;;;;5.28;4.05;;;;;;;2.82;60.42;100829.28;4954179;28;20066;-47
2022/04/03 01:36:16;;;;;;;6.15;4.45;;;;;;;2.82;59.99;100829.28;4953992;28;20063;-48
2022/04/03 01:38:44;;;;;;;5.95;4.60;;;;;;;2.74;60.89;100834.38;4964073;28;20062;-47
2022/04/03 01:41:11;;;;;;;5.97;4.45;;;;;;;2.79;60.99;100827.03;4962200;28;20047;-47
2022/04/03 01:43:40;;;;;;;7.15;4.43;;;;;;;2.82;60.95;100826.53;4964390;28;20055;-47
2022/04/03 01:46:07;;;;;;;5.03;3.75;;;;;;;2.82;61.61;100834.78;4954292;28;20400;-52
2022/04/03 01:48:34;;;;;;;4.88;4.05;;;;;;;2.83;60.71;100830.94;4954228;28;20397;-48
2022/04/03 01:51:02;;;;;;;5.00;4.20;;;;;;;2.80;60.55;100825.94;4955154;28;20051;-47
2022/04/03 01:53:29;;;;;;;5.40;4.28;;;;;;;2.79;60.89;100832.53;4954158;29;20055;-48
2022/04/03 01:56:00;;;;;;;6.78;4.05;;;;;;;2.80;60.80;100825.13;4962396;28;20395;-47
2022/04/03 01:58:28;;;;;;;6.10;4.63;;;;;;;2.75;60.93;100831.38;4971267;28;20050;-47
2022/04/03 02:00:57;;;;;;;7.38;4.43;;;;;;;2.78;61.30;100830.88;4973295;28;20464;-49
2022/04/03 02:03:24;;;;;;;6.05;4.75;;;;;;;2.76;60.54;100824.78;4952352;28;1364246;-46
2022/04/03 02:05:52;;;;;;;5.47;4.40;;;;;;;2.65;61.20;100825.72;5012951;28;20075;-47
2022/04/03 02:08:19;;;;;;;7.43;4.20;;;;;;;2.67;61.03;100829.06;5011736;28;20479;-46
2022/04/03 02:10:46;;;;;;;4.63;3.92;;;;;;;2.68;61.39;100829.88;4997965;28;20049;-46
2022/04/03 02:13:14;;;;;;;5.07;4.35;;;;;;;2.66;61.91;100832.06;5012469;28;20058;-50
2022/04/03 02:15:42;;;;;;;5.25;4.35;;;;;;;2.65;61.70;100831.22;5006085;28;20510;-47
2022/04/03 02:18:10;;;;;;;6.13;4.43;;;;;;;2.66;61.13;100832.88;4992769;28;20060;-47
2022/04/03 02:20:38;;;;;;;5.30;4.22;;;;;;;2.62;61.99;100835.34;4993158;28;20058;-47
2022/04/03 02:23:06;;;;;;;6.97;4.65;;;;;;;2.61;61.85;100836.41;4993913;28;20050;-46
2022/04/03 02:25:33;;;;;;;5.07;4.40;;;;;;;2.57;61.97;100831.66;4998034;28;20060;-47
2022/04/03 02:28:01;;;;;;;8.38;4.03;;;;;;;2.50;62.06;100826.34;5004549;28;20057;-47
2022/04/03 02:30:28;;;;;;;6.15;4.60;;;;;;;2.51;61.57;100827.16;5012951;28;20060;-47
2022/04/03 02:32:56;;;;;;;6.93;3.92;;;;;;;2.48;62.52;100833.16;5012100;28;20065;-49
2022/04/03 02:35:24;;;;;;;6.07;4.55;;;;;;;2.43;63.07;100831.16;5011719;28;20702;-46
2022/04/03 02:37:53;;;;;;;6.28;4.63;;;;;;;2.43;62.46;100832.00;5012460;28;20494;-48
2022/04/03 02:40:20;;;;;;;7.32;4.85;;;;;;;2.41;61.83;100831.41;4996075;28;20073;-46
2022/04/03 02:42:47;;;;;;;5.60;4.18;;;;;;;2.41;61.69;100828.66;5002100;28;20062;-47
2022/04/03 02:45:16;;;;;;;5.85;4.55;;;;;;;2.37;61.77;100830.28;4991431;28;20054;-47
2022/04/03 02:47:49;;;;;;;7.03;4.47;;;;;;;2.35;62.31;100829.69;4992953;28;20058;-49
2022/04/03 02:50:17;;;;;;;7.53;4.90;;;;;;;2.33;62.04;100831.84;4992909;28;20055;-47
2022/04/03 02:52:49;;;;;;;5.85;4.22;;;;;;;2.29;61.93;100836.19;5001791;28;20506;-49
2022/04/03 02:55:17;;;;;;;4.97;3.80;;;;;;;2.25;62.24;100832.28;5011367;28;20057;-47
2022/04/03 02:57:44;;;;;;;6.40;4.25;;;;;;;2.23;62.59;100831.69;5011103;28;20045;-48
2022/04/03 03:00:14;;;;;;;5.63;3.92;;;;;;;2.19;62.60;100825.03;5002324;28;20409;-47
2022/04/03 03:02:41;;;;;;;5.95;4.30;;;;;;;2.17;62.82;100838.19;5009613;28;20054;-47
2022/04/03 03:05:09;;;;;;;5.45;4.15;;;;;;;2.11;62.93;100839.19;5011605;28;20058;-49
2022/04/03 03:07:37;;;;;;;6.25;4.25;;;;;;;2.07;63.15;100836.09;5012096;28;20475;-51
2022/04/03 03:10:08;;;;;;;5.38;4.63;;;;;;;2.06;63.17;100830.84;5011531;28;20069;-47
2022/04/03 03:12:36;;;;;;;4.65;3.80;;;;;;;2.03;63.04;100830.25;5011362;28;20053;-48
2022/04/03 03:15:04;;;;;;;6.05;4.60;;;;;;;2.03;62.56;100833.00;5011752;28;20054;-48
2022/04/03 03:17:32;;;;;;;5.75;4.40;;;;;;;1.99;63.40;100831.81;5012080;28;20057;-48
2022/04/03 03:19:59;;;;;;;6.55;5.10;;;;;;;1.95;63.16;100832.56;5011889;28;20053;-49
2022/04/03 03:22:27;;;;;;;7.85;4.68;;;;;;;1.91;63.46;100840.50;5010839;28;20050;-47
2022/04/03 03:24:54;;;;;;;6.75;4.53;;;;;;;1.89;63.83;100831.69;5011727;28;20245;-48
2022/04/03 03:27:23;;;;;;;5.53;4.40;;;;;;;1.88;63.36;100831.91;5011059;28;20046;-48
2022/04/03 03:29:50;;;;;;;7.70;4.78;;;;;;;1.86;63.44;100832.16;5011496;28;20147;-52
2022/04/03 03:32:18;;;;;;;6.28;4.50;;;;;;;1.85;63.95;100824.16;5011935;28;20046;-49
2022/04/03 03:34:45;;;;;;;5.63;4.28;;;;;;;1.81;63.83;100823.84;5011845;28;20057;-47
2022/04/03 03:37:12;;;;;;;5.47;4.60;;;;;;;1.83;63.27;100828.00;4996613;28;20057;-50
2022/04/03 03:39:39;;;;;;;9.68;5.18;;;;;;;1.83;63.77;100832.66;5011864;28;20061;-47
2022/04/03 03:42:08;;;;;;;6.15;4.78;;;;;;;1.80;63.67;100830.41;5006388;28;20050;-47
2022/04/03 03:44:37;;;;;;;6.30;4.70;;;;;;;1.81;64.46;100840.31;4992017;28;20058;-48
2022/04/03 03:47:05;;;;;;;6.93;5.20;;;;;;;1.80;64.77;100844.13;4992406;28;20054;-48
2022/04/03 03:49:32;;;;;;;5.32;4.65;;;;;;;1.80;63.79;100835.88;4992058;28;20065;-50
2022/04/03 03:52:00;;;;;;;5.95;4.78;;;;;;;1.79;63.51;100831.50;4992022;28;20050;-48
2022/04/03 03:54:27;;;;;;;5.93;4.57;;;;;;;1.81;63.60;100845.81;4991989;28;20055;-47
2022/04/03 03:56:54;;;;;;;6.22;4.50;;;;;;;1.82;63.71;100847.47;5008540;28;20483;-48
2022/04/03 03:59:22;;;;;;;7.38;5.20;;;;;;;1.83;64.07;100841.72;5014608;28;20054;-47
2022/04/03 04:01:50;;;;;;;8.63;4.82;;;;;;;1.81;63.89;100849.38;5006341;28;20050;-48
2022/04/03 04:04:18;;;;;;;5.43;4.68;;;;;;;1.86;63.07;100856.88;5012727;28;20050;-50
2022/04/03 04:06:46;;;;;;;7.32;5.15;;;;;;;1.87;64.13;100849.47;5015217;28;20141;-47
2022/04/03 04:09:13;;;;;;;5.95;5.28;;;;;;;1.86;64.35;100856.88;5011933;28;20072;-51
2022/04/03 04:11:41;;;;;;;6.32;4.88;;;;;;;1.91;64.13;100851.50;5011155;28;20057;-50
2022/04/03 04:14:08;;;;;;;6.43;5.18;;;;;;;1.83;64.40;100854.63;5014012;28;20058;-52
2022/04/03 04:16:35;;;;;;;5.82;4.82;;;;;;;1.89;63.03;100848.16;5004711;28;20062;-47
2022/04/03 04:19:05;;;;;;;6.07;4.95;;;;;;;1.92;63.51;100857.81;5002878;28;20057;-50
2022/04/03 04:21:32;;;;;;;7.93;5.28;;;;;;;1.92;62.98;100857.81;5015004;28;20077;-47
2022/04/03 04:23:59;;;;;;;5.63;4.30;;;;;;;1.91;63.72;100853.38;5014808;28;20057;-50
2022/04/03 04:26:27;;;;;;;6.10;4.85;;;;;;;1.94;62.94;100861.16;5014363;28;20049;-49
2022/04/03 04:28:54;;;;;;;7.40;4.65;;;;;;;1.96;62.94;100853.50;5014589;28;20070;-47
2022/04/03 04:31:21;;;;;;;5.70;4.50;;;;;;;1.97;63.60;100861.47;5014096;28;20049;-48
2022/04/03 04:33:49;;;;;;;5.97;4.82;;;;;;;2.03;64.30;100857.72;5014128;28;20054;-49
2022/04/03 04:36:18;;;;;;;9.95;6.00;;;;;;;2.05;64.09;100862.97;5004227;28;20054;-49
2022/04/03 04:38:45;;;;;;;6.63;4.53;;;;;;;2.06;64.03;100859.16;5011303;28;20450;-50
2022/04/03 04:41:12;;;;;;;8.25;5.20;;;;;;;2.06;63.73;100863.81;5006154;28;20049;-50
2022/04/03 04:43:40;;;;;;;6.20;4.80;;;;;;;2.07;63.65;100870.97;5014296;28;20057;-48
2022/04/03 04:46:07;;;;;;;7.00;4.30;;;;;;;2.08;63.83;100872.63;5001233;28;20050;-48
2022/04/03 04:48:35;;;;;;;5.85;4.90;;;;;;;2.07;63.64;100879.22;5012434;28;20053;-48
2022/04/03 04:51:02;;;;;;;5.60;4.55;;;;;;;2.03;63.20;100882.44;4994801;28;20050;-49
2022/04/03 04:53:31;;;;;;;5.70;4.50;;;;;;;2.00;62.98;100880.22;4994244;28;20062;-47
2022/04/03 04:55:59;;;;;;;5.60;4.78;;;;;;;1.95;63.41;100882.88;5013316;28;20049;-49
2022/04/03 04:58:26;;;;;;;6.78;5.40;;;;;;;1.91;63.65;100894.59;5000100;28;20054;-47
2022/04/03 05:00:54;;;;;;;6.13;5.30;;;;;;;1.87;63.28;100888.78;4994629;28;20054;-49
2022/04/03 05:03:21;;;;;;;6.55;4.72;;;;;;;1.83;63.64;100882.94;4993615;28;20495;-48
2022/04/03 05:05:48;;;;;;;7.60;5.25;;;;;;;1.82;63.04;100888.66;4994630;28;20136;-49
2022/04/03 05:08:16;;;;;;;6.65;5.28;;;;;;;1.81;63.26;100889.75;5003609;28;20054;-46
2022/04/03 05:10:45;;;;;;;6.03;5.00;;;;;;;1.82;63.15;100885.91;5013074;28;20054;-48
2022/04/03 05:13:13;;;;;;;6.07;5.18;;;;;;;1.81;64.26;100889.75;5011051;28;20050;-47
2022/04/03 05:15:40;;;;;;;6.15;4.78;;;;;;;1.86;63.78;100897.25;5011597;28;20069;-51
2022/04/03 05:18:08;;;;;;;9.45;4.82;;;;;;;1.91;63.50;100894.59;5000950;28;20046;-47
2022/04/03 05:20:35;;;;;;;9.30;6.78;;;;;;;1.83;63.20;100896.66;5006203;28;20058;-48
2022/04/03 05:23:02;;;;;;;7.93;5.68;;;;;;;1.84;63.75;100894.75;5013502;28;20076;-47
2022/04/03 05:25:29;;;;;;;5.68;4.90;;;;;;;1.85;63.43;100901.91;5002509;28;20062;-48
2022/04/03 05:27:58;;;;;;;7.10;5.97;;;;;;;1.92;63.86;100908.09;5012333;28;20058;-48
2022/04/03 05:30:26;;;;;;;7.80;5.60;;;;;;;1.97;63.40;100910.09;5013015;28;20418;-49
2022/04/03 05:32:53;;;;;;;6.47;4.60;;;;;;;1.96;63.32;100905.69;5012656;28;20046;-48
2022/04/03 05:35:21;;;;;;;5.90;5.18;;;;;;;1.96;63.87;100908.44;5012854;28;20050;-48
2022/04/03 05:37:48;;;;;;;7.95;5.68;;;;;;;1.98;63.25;100917.25;5005488;28;20054;-47
2022/04/03 05:40:15;;;;;;;7.40;5.40;;;;;;;1.99;63.69;100913.41;5000940;28;20406;-48
2022/04/03 05:42:43;;;;;;;7.32;5.45;;;;;;;2.02;63.83;100916.50;5013405;28;20054;-50
2022/04/03 05:45:12;;;;;;;7.32;5.05;;;;;;;2.11;63.81;100914.19;5007381;28;20148;-50
2022/04/03 05:47:40;;;;;;;7.68;5.53;;;;;;;2.19;63.15;100915.72;4993531;28;20061;-50
2022/04/03 05:50:08;;;;;;;7.43;5.57;;;;;;;2.22;62.95;100923.44;5009208;28;20050;-51
2022/04/03 05:52:44;;;;;;;7.95;5.78;;;;;;;2.29;63.19;100915.03;5008110;28;20050;-48
2022/04/03 05:55:11;;;;;;;9.10;6.95;;;;;;;2.33;62.37;100919.81;5012046;28;20061;-50
2022/04/03 05:57:39;;;;;;;10.65;6.72;;;;;;;2.40;63.23;100922.41;5011679;28;20050;-50
2022/04/03 06:00:12;;;;;;;10.02;6.78;;;;;;;2.49;63.29;100929.16;5010428;28;20054;-48
2022/04/03 06:02:47;;;;;;;10.50;6.82;;;;;;;2.55;62.62;100932.81;4999507;28;20050;-50
2022/04/03 06:05:17;;;;;;;7.78;6.57;;;;;;;2.66;63.07;100934.66;4998221;28;20049;-47
2022/04/03 06:07:45;;;;;;;10.10;6.28;;;;;;;2.73;62.86;100935.31;5010015;28;20064;-48
2022/04/03 06:10:13;;;;;;;7.50;6.03;;;;;;;2.82;62.30;100933.81;4996045;28;20057;-48
2022/04/03 06:12:55;;;;;;;5.55;4.88;;;;;;;2.89;61.99;100944.63;4997502;28;20046;-48
2022/04/03 06:15:24;;;;;;;8.25;6.82;;;;;;;3.00;61.12;100931.84;4993827;28;20098;-51
2022/04/03 06:17:53;;;;;;;8.07;6.53;;;;;;;3.05;61.27;100937.47;5009752;28;20056;-49
2022/04/03 06:20:22;;;;;;;9.77;6.63;;;;;;;3.11;61.43;100933.69;5012197;28;20072;-50
2022/04/03 06:22:49;;;;;;;8.35;6.80;;;;;;;3.15;61.61;100934.84;5000545;28;20057;-51
2022/04/03 06:25:16;;;;;;;7.50;6.38;;;;;;;3.21;60.40;100944.00;5011415;28;20049;-48
2022/04/03 06:27:44;;;;;;;9.45;6.65;;;;;;;3.30;60.55;100936.13;5012010;28;20049;-47
2022/04/03 06:30:11;;;;;;;8.63;6.68;;;;;;;3.36;60.76;100938.72;5012818;28;20501;-49
2022/04/03 06:32:39;;;;;;;8.52;6.18;;;;;;;3.42;59.93;100942.34;4996078;28;20057;-48
2022/04/03 06:35:09;;;;;;;7.78;5.85;;;;;;;3.51;59.79;100946.34;4993162;28;20462;-49
2022/04/03 06:37:36;;;;;;;;;;;;;;;3.51;59.12;100946.34;5000205;28;20225;-47
2022/04/03 06:40:05;;;;;;;8.15;6.07;;;;;;;3.55;59.56;100947.50;5006716;28;19936;-49
2022/04/03 06:42:33;;;;;;;8.15;6.30;;;;;;;3.60;59.10;100947.56;5000130;28;20053;-47
2022/04/03 06:45:01;;;;;;;8.38;6.03;;;;;;;3.51;59.37;100946.34;5007049;28;20054;-48
2022/04/03 06:47:29;;;;;;;8.95;6.15;;;;;;;3.62;59.40;100952.81;5000036;28;20050;-47
2022/04/03 06:49:57;;;;;;;8.38;6.40;;;;;;;3.72;59.04;100958.47;5004004;28;20126;-47
2022/04/03 06:52:25;;;;;;;7.68;6.00;;;;;;;3.70;58.64;100948.78;5000739;28;20518;-48
2022/04/03 06:54:53;;;;;;;8.63;6.43;;;;;;;3.82;58.48;100947.56;5012037;28;20484;-51
2022/04/03 06:57:20;;;;;;;8.27;6.43;;;;;;;3.94;58.82;100954.84;5011554;28;20050;-48
2022/04/03 06:59:48;;;;;;;8.75;7.47;;;;;;;3.97;57.40;100944.13;5010652;28;20069;-50
2022/04/03 07:02:15;;;;;;;9.00;7.00;;;;;;;4.02;57.65;100948.88;4999114;28;20055;-48
2022/04/03 07:04:42;;;;;;;10.70;6.95;;;;;;;4.04;57.83;100944.75;4992192;28;20073;-47
2022/04/03 07:07:10;;;;;;;9.85;6.85;;;;;;;4.16;57.68;100944.63;4992878;28;20054;-47
2022/04/03 07:09:41;;;;;;;11.13;7.47;;;;;;;4.03;57.22;100951.38;5009717;28;20058;-48
2022/04/03 07:12:11;;;;;;;10.85;6.60;;;;;;;4.18;57.00;100949.84;4996439;28;20077;-47
2022/04/03 07:14:38;;;;;;;;;;;;;;;4.27;55.83;100959.34;5012222;28;20072;-49
2022/04/03 07:17:05;;;;;;;8.35;5.78;;;;;;;4.46;55.38;100957.03;5010401;28;19921;-47
2022/04/03 07:19:33;;;;;;;7.15;5.68;;;;;;;5.12;53.59;100950.38;4998415;28;20422;-50
2022/04/03 07:22:01;;;;;;;8.57;5.28;;;;;;;6.44;52.01;100941.75;5010387;28;20406;-49
2022/04/03 07:24:28;;;;;;;7.18;4.93;;;;;;;7.84;47.57;100943.19;5010754;28;20060;-47
2022/04/03 07:27:00;;;;;;;9.43;5.63;;;;;;;9.26;45.21;100939.63;5011500;28;20053;-47
2022/04/03 07:29:27;;;;;;;9.43;5.65;;;;;;;10.71;41.62;100938.28;5009003;28;20054;-47
2022/04/03 07:31:54;;;;;;;8.00;6.13;;;;;;;11.78;38.27;100921.50;5011997;28;20054;-48
2022/04/03 07:34:22;;;;;;;7.05;5.18;;;;;;;12.63;35.68;100934.13;5008432;28;20475;-52
2022/04/03 07:36:50;;;;;;;7.97;5.32;;;;;;;13.71;34.71;100927.34;5000137;28;20050;-47
2022/04/03 07:39:17;;;;;;;4.72;3.85;;;;;;;14.35;32.88;100923.16;5011027;28;20073;-48
2022/04/03 07:41:45;;;;;;;6.60;5.13;;;;;;;15.69;30.59;100928.69;5002177;28;20057;-48
2022/04/03 07:44:14;;;;;;;5.10;4.30;;;;;;;16.73;28.71;100926.31;5008473;28;20068;-51
2022/04/03 07:46:41;;;;;;;6.88;4.95;;;;;;;17.49;26.64;100932.66;5010953;28;20050;-48
2022/04/03 07:49:10;;;;;;;6.35;4.57;;;;;;;18.38;26.55;100924.28;4998431;28;20063;-49
2022/04/03 07:51:37;;;;;;;6.75;4.55;;;;;;;18.34;24.93;100936.63;5012997;28;20471;-48
2022/04/03 07:54:05;;;;;;;6.93;4.07;;;;;;;19.31;24.67;100928.13;5013059;28;20046;-49
2022/04/03 07:56:33;;;;;;;6.63;4.63;;;;;;;20.08;23.32;100927.66;5006660;28;20069;-49
2022/04/03 07:59:01;;;;;;;7.45;4.53;;;;;;;20.79;22.30;100927.59;5010580;28;20395;-48
2022/04/03 08:01:30;;;;;;;6.22;4.25;;;;;;;21.78;21.65;100924.19;5013026;28;20053;-49
2022/04/03 08:03:57;;;;;;;6.57;4.20;;;;;;;22.86;20.56;100927.34;5002703;28;20054;-52
2022/04/03 08:06:24;;;;;;;5.50;4.22;;;;;;;23.41;19.84;100923.91;5014655;28;20058;-50
2022/04/03 08:08:52;;;;;;;5.70;4.05;;;;;;;24.19;18.49;100922.09;5013758;28;20410;-52
2022/04/03 08:11:20;;;;;;;7.35;5.60;;;;;;;24.67;18.35;100928.50;5014244;28;20053;-52
2022/04/03 08:13:47;;;;;;;8.38;5.25;;;;;;;25.39;17.57;100927.91;5014856;28;20050;-49
2022/04/03 08:16:15;;;;;;;6.32;4.50;;;;;;;25.38;17.07;100926.28;5011941;28;20402;-51
2022/04/03 08:18:44;;;;;;;3.80;3.40;;;;;;;26.05;16.28;100927.53;5014142;28;20061;-53
2022/04/03 08:21:11;;;;;;;6.57;4.15;;;;;;;26.35;16.30;100920.53;5012872;28;20057;-49
2022/04/03 08:23:39;;;;;;;5.95;3.78;;;;;;;26.53;15.84;100927.81;5010788;28;20449;-50
2022/04/03 08:26:09;;;;;;;4.63;3.30;;;;;;;26.51;15.91;100923.75;5005852;28;20064;-49
2022/04/03 08:28:37;;;;;;;4.63;3.42;;;;;;;26.87;15.20;100923.63;5014603;28;20054;-51
2022/04/03 08:31:04;;;;;;;4.35;3.08;;;;;;;26.83;15.17;100931.41;5006825;28;20053;-52
2022/04/03 08:33:32;;;;;;;4.45;3.33;;;;;;;26.17;16.14;100927.13;5006802;28;20046;-52
2022/04/03 08:36:04;;;;;;;4.57;3.40;;;;;;;27.07;14.48;100926.81;5004776;28;20065;-49
2022/04/03 08:38:31;;;;;;;4.03;2.75;;;;;;;26.98;14.76;100923.56;5007678;28;20419;-55
2022/04/03 08:41:01;;;;;;;5.90;3.38;;;;;;;27.29;14.68;100916.88;5009040;28;20065;-49
2022/04/03 08:43:32;;;;;;;6.10;3.03;;;;;;;27.94;14.49;100922.91;5001965;28;20242;-52
2022/04/03 08:45:59;;;;;;;4.63;2.97;;;;;;;28.86;13.04;100913.72;5011583;28;20057;-50
2022/04/03 08:48:31;;;;;;;3.22;2.40;;;;;;;29.25;12.70;100914.41;5010333;28;20054;-50
2022/04/03 08:51:02;;;;;;;2.60;2.10;;;;;;;27.51;13.82;100916.72;5006743;28;20069;-50
2022/04/03 08:53:31;;;;;;;3.83;2.13;;;;;;;27.28;13.81;100920.97;5009723;28;20054;-50
2022/04/03 08:55:59;;;;;;;2.63;2.25;;;;;;;27.33;13.78;100931.16;5004348;28;20057;-51
2022/04/03 08:58:27;;;;;;;3.25;2.42;;;;;;;26.93;14.50;100916.25;5001778;28;20419;-50
2022/04/03 09:00:55;;;;;;;3.03;1.98;;;;;;;25.77;14.79;100925.50;5001343;28;20050;-49
2022/04/03 09:03:23;;;;;;;2.63;2.00;;;;;;;24.94;15.43;100930.22;5009235;28;20054;-55
2022/04/03 09:05:50;;;;;;;2.20;1.65;;;;;;;24.12;15.80;100928.56;5004674;28;20522;-52
2022/04/03 09:08:19;;;;;;;3.30;2.20;;;;;;;23.18;15.82;100934.63;5009473;28;20061;-53
2022/04/03 09:11:03;;;;;;;;;;;;;;;22.54;16.61;100937.50;5000074;28;20054;-54
2022/04/03 09:13:34;;;;;;;3.38;2.17;;;;;;;22.16;17.05;100930.88;4993713;28;19925;-52
2022/04/03 09:16:01;;;;;;;4.35;2.10;;;;;;;21.91;17.99;100928.44;4993614;28;20057;-51
2022/04/03 09:18:51;;;;;;;3.22;2.30;;;;;;;21.46;17.37;100930.13;4993523;28;20111;-48
2022/04/03 09:21:19;;;;;;;;;;;;;;;20.63;18.12;100933.34;4990056;28;20046;-54
2022/04/03 09:24:02;;;;;;;4.53;2.10;;;;;;;20.06;18.84;100930.03;4999925;28;19921;-49
2022/04/03 09:26:30;;;;;;;3.45;2.08;;;;;;;19.61;19.23;100934.16;4993522;28;20054;-50
2022/04/03 09:29:15;;;;;;;2.70;2.00;;;;;;;19.57;19.60;100931.25;5001805;28;20426;-51
2022/04/03 09:31:44;;;;;;;2.75;2.42;;;;;;;21.18;18.52;100934.03;5012695;28;20512;-49
2022/04/03 09:34:16;;;;;;;6.80;2.30;;;;;;;21.29;18.00;100932.25;5012960;28;20068;-52
2022/04/03 09:36:43;;;;;;;3.13;1.98;;;;;;;21.40;17.00;100928.78;5012959;28;20054;-49
2022/04/03 09:39:15;;;;;;;2.53;1.90;;;;;;;22.29;16.11;100927.44;5012383;28;20489;-53
2022/04/03 09:41:59;;;;;;;3.95;2.38;;;;;;;23.50;15.32;100915.88;5013452;28;20053;-53
2022/04/03 09:44:28;;;;;;;3.67;2.00;;;;;;;24.49;15.02;100914.19;5011200;28;20053;-55
2022/04/03 09:47:12;;;;;;;2.75;2.00;;;;;;;25.20;13.95;100903.41;5013072;28;20089;-50
2022/04/03 09:49:39;;;;;;;3.35;2.67;;;;;;;26.05;14.19;100908.34;5013193;28;20058;-52
2022/04/03 09:52:07;;;;;;;2.95;2.65;;;;;;;27.85;12.42;100905.38;5013124;28;20053;-50
2022/04/03 09:54:38;;;;;;;2.40;1.88;;;;;;;27.96;11.90;100893.84;5011385;28;20054;-54
2022/04/03 09:57:23;;;;;;;3.28;1.95;;;;;;;28.65;11.93;100897.59;5012610;28;20050;-52
2022/04/03 09:59:57;;;;;;;3.25;2.00;;;;;;;29.66;11.49;100904.75;5010401;28;20050;-52
2022/04/03 10:02:25;;;;;;;2.33;2.13;;;;;;;30.48;11.07;100902.44;5012703;28;20066;-51
2022/04/03 10:04:53;;;;;;;3.28;2.20;;;;;;;31.55;10.43;100896.38;5012706;28;20076;-51
2022/04/03 10:07:22;;;;;;;1.80;1.40;;;;;;;31.81;9.09;100900.22;5013209;28;20057;-54
2022/04/03 10:09:54;;;;;;;2.80;1.70;;;;;;;30.72;10.03;100915.50;5012262;28;20475;-55
2022/04/03 10:12:23;;;;;;;2.47;1.50;;;;;;;29.68;10.73;100910.88;5011923;28;20042;-50
2022/04/03 10:14:52;;;;;;;4.15;1.80;;;;;;;28.30;11.00;100908.22;5009132;28;20054;-51
2022/04/03 10:17:21;;;;;;;2.00;1.50;;;;;;;27.09;12.79;100913.72;5012589;28;20058;-51
2022/04/03 10:19:51;;;;;;;2.35;1.50;;;;;;;25.58;13.70;100903.91;5008824;28;20043;-51
2022/04/03 10:22:23;;;;;;;4.10;2.15;;;;;;;24.45;14.06;100918.19;5009269;28;20065;-49
2022/04/03 10:24:57;;;;;;;3.70;1.90;;;;;;;23.23;14.75;100914.41;5010761;28;20053;-50
2022/04/03 10:27:30;;;;;;;3.47;1.88;;;;;;;22.23;16.62;100923.28;5010964;28;20259;-51
2022/04/03 10:29:59;;;;;;;2.55;1.92;;;;;;;21.19;17.74;100915.06;5012709;28;20057;-49
2022/04/03 10:32:28;;;;;;;3.83;1.92;;;;;;;19.97;18.76;100926.56;5009947;28;20057;-51
2022/04/03 10:35:03;;;;;;;3.50;1.80;;;;;;;19.33;19.72;100915.28;5011224;28;20061;-49
2022/04/03 10:37:35;;;;;;;2.95;2.33;;;;;;;18.51;20.24;100922.25;5008478;28;20078;-50
2022/04/03 10:40:08;;;;;;;3.45;1.70;;;;;;;17.52;21.28;100931.97;5006115;28;20057;-48
2022/04/03 10:42:50;;;;;;;3.35;2.10;;;;;;;16.65;22.67;100922.41;5003426;28;20046;-50
2022/04/03 10:45:20;;;;;;;3.78;1.85;;;;;;;15.92;22.97;100932.06;5011307;28;20072;-49
2022/04/03 10:47:51;;;;;;;3.22;1.80;;;;;;;15.53;23.95;100931.22;5012388;28;20495;-51
2022/04/03 10:50:19;;;;;;;3.28;1.92;;;;;;;14.95;25.29;100929.91;5012002;28;20057;-48
2022/04/03 10:52:56;;;;;;;3.42;2.10;;;;;;;14.41;25.94;100935.88;4993938;28;20066;-51
2022/04/03 10:55:28;;;;;;;3.20;1.65;;;;;;;13.80;25.80;100936.59;5004238;28;20407;-54
2022/04/03 10:58:02;;;;;;;3.67;1.90;;;;;;;13.59;25.89;100938.34;5011647;28;20072;-49
2022/04/03 11:00:47;;;;;;;4.10;2.58;;;;;;;13.23;27.41;100941.25;5008669;28;20061;-50
2022/04/03 11:03:37;;;;;;;3.72;2.00;;;;;;;12.91;28.54;100937.59;5006868;28;20415;-53
2022/04/03 11:06:23;;;;;;;2.83;1.70;;;;;;;12.66;28.44;100933.47;5002282;28;20042;-49
2022/04/03 11:09:21;;;;;;;3.67;2.33;;;;;;;12.75;28.10;100937.19;5010400;28;20058;-51
2022/04/03 11:11:56;;;;;;;5.95;4.20;;;;;;;12.86;28.43;100932.97;5006564;28;20062;-50
2022/04/03 11:14:50;;;;;;;2.90;2.28;;;;;;;13.18;28.28;100929.03;5005588;28;20046;-49
2022/04/03 11:17:17;;;;;;;4.32;3.53;;;;;;;13.49;28.34;100925.44;4996942;28;20050;-49
2022/04/03 11:19:46;;;;;;;3.08;2.47;;;;;;;14.97;26.69;100914.41;4995657;28;20112;-51
2022/04/03 11:22:15;;;;;;;2.03;1.50;;;;;;;15.82;24.81;100913.59;4996596;28;20055;-50
2022/04/03 11:24:43;;;;;;;4.07;1.70;;;;;;;17.65;24.00;100905.44;5004926;28;20504;-50
2022/04/03 11:27:13;;;;;;;3.72;2.33;;;;;;;19.19;21.07;100898.78;5015861;28;20057;-50
2022/04/03 11:29:40;;;;;;;;;;;;;;;21.20;19.64;100885.50;5015776;28;20533;-52
2022/04/03 11:32:09;;;;;;;2.03;1.60;;;;;;;23.52;18.29;100875.69;5015782;28;19929;-50
2022/04/03 11:34:37;;;;;;;2.70;2.00;;;;;;;25.29;16.91;100870.47;5015274;28;20049;-49
2022/04/03 11:37:08;;;;;;;3.45;1.55;;;;;;;26.72;16.18;100877.16;5015462;28;20426;-50
2022/04/03 11:39:37;;;;;;;3.13;1.60;;;;;;;27.88;13.78;100860.81;5014965;28;20058;-51
2022/04/03 11:42:07;;;;;;;2.30;1.60;;;;;;;28.80;13.19;100863.00;5015215;28;20384;-51